Time;durP1;ratioP1;P1;durP2;ratioP2;P2;SDS_P1;SDS_P2;PMS_P1;PMS_P2;Temp;Humidity;BMP_temperature;BMP_pressure;BME280_temperature;BME280_humidity;BME280_pressure;Samples;Min_cycle;Max_cycle;Signal;HPM_P1;HPM_P2
2023/10/14 00:00:46;;;;;;;21.40;10.98;;;;;;;;;;5061659;28;20413;-62
2023/10/14 00:03:27;;;;;;;19.42;10.75;;;;;;;;;;5065231;28;21191;-61
2023/10/14 00:05:55;;;;;;;16.50;10.32;;;;;;;;;;5059314;28;20421;-61
2023/10/14 00:08:22;;;;;;;17.48;10.80;;;;;;;;;;5059372;28;20834;-61
2023/10/14 00:10:49;;;;;;;17.30;11.60;;;;;;;;;;5059987;28;20420;-62
2023/10/14 00:13:16;;;;;;;20.92;10.90;;;;;;;;;;5061161;28;20400;-61
2023/10/14 00:15:45;;;;;;;18.83;11.43;;;;;;;;;;5060715;28;20517;-61
2023/10/14 00:18:13;;;;;;;19.42;11.90;;;;;;;;;;5062898;28;20411;-62
2023/10/14 00:20:42;;;;;;;20.17;11.70;;;;;;;;;;5059510;28;21056;-61
2023/10/14 00:23:11;;;;;;;19.15;11.70;;;;;;;;;;5062770;28;20423;-62
2023/10/14 00:25:38;;;;;;;18.93;11.43;;;;;;;;;;5063231;28;20449;-61
2023/10/14 00:28:12;;;;;;;20.65;11.50;;;;;;;;;;5062146;28;20506;-62
2023/10/14 00:30:39;;;;;;;19.23;10.82;;;;;;;;;;5061068;28;20422;-62
2023/10/14 00:33:06;;;;;;;16.83;10.00;;;;;;;;;;5059102;28;20405;-62
2023/10/14 00:35:39;;;;;;;19.58;11.18;;;;;;;;;;5061123;28;20403;-62
2023/10/14 00:38:12;;;;;;;21.33;11.18;;;;;;;;;;5062097;28;20418;-63
2023/10/14 00:40:40;;;;;;;17.15;10.88;;;;;;;;;;5050843;28;20405;-61
2023/10/14 00:43:08;;;;;;;18.10;11.00;;;;;;;;;;5052547;28;20425;-65
2023/10/14 00:45:43;;;;;;;17.05;11.30;;;;;;;;;;5055586;28;20953;-61
2023/10/14 00:48:12;;;;;;;19.23;12.13;;;;;;;;;;5054369;28;20421;-61
2023/10/14 00:50:41;;;;;;;22.63;11.82;;;;;;;;;;5054425;28;20417;-60
2023/10/14 00:53:10;;;;;;;18.00;11.50;;;;;;;;;;5060093;28;20763;-61
2023/10/14 00:55:46;;;;;;;18.52;11.15;;;;;;;;;;5065448;28;20411;-61
2023/10/14 00:58:20;;;;;;;19.45;11.02;;;;;;;;;;5061887;28;20469;-60
2023/10/14 01:00:56;;;;;;;15.55;10.25;;;;;;;;;;5061297;28;20423;-61
2023/10/14 01:03:23;;;;;;;14.05;10.43;;;;;;;;;;5057557;28;20787;-63
2023/10/14 01:05:51;;;;;;;15.87;10.23;;;;;;;;;;5061337;28;20411;-61
2023/10/14 01:08:22;;;;;;;17.17;10.10;;;;;;;;;;5059495;28;20415;-61
2023/10/14 01:10:49;;;;;;;16.88;10.52;;;;;;;;;;5062540;28;20463;-61
2023/10/14 01:13:17;;;;;;;15.13;10.25;;;;;;;;;;5061516;28;20439;-61
2023/10/14 01:15:47;;;;;;;21.88;11.93;;;;;;;;;;5057475;28;20415;-61
2023/10/14 01:18:15;;;;;;;20.27;12.50;;;;;;;;;;5057568;28;20463;-61
2023/10/14 01:20:42;;;;;;;20.40;12.57;;;;;;;;;;5061503;28;20414;-61
2023/10/14 01:23:14;;;;;;;21.75;11.43;;;;;;;;;;5064051;28;20428;-61
2023/10/14 01:25:47;;;;;;;23.10;12.73;;;;;;;;;;5065861;28;20407;-61
2023/10/14 01:28:15;;;;;;;16.90;11.50;;;;;;;;;;5064362;28;20411;-61
2023/10/14 01:30:50;;;;;;;19.88;11.63;;;;;;;;;;5058626;28;20417;-61
2023/10/14 01:33:24;;;;;;;8.93;4.90;;;;;;;;;;5067999;28;20536;-61
2023/10/14 01:35:52;;;;;;;11.65;5.20;;;;;;;;;;5062596;28;20887;-61
2023/10/14 01:38:23;;;;;;;5.30;2.88;;;;;;;;;;5063559;28;20506;-61
2023/10/14 01:40:52;;;;;;;4.35;2.33;;;;;;;;;;5061467;28;20495;-61
2023/10/14 01:43:24;;;;;;;3.95;2.25;;;;;;;;;;5063970;28;20432;-61
2023/10/14 01:46:00;;;;;;;4.50;2.22;;;;;;;;;;5064479;28;20963;-61
2023/10/14 01:48:30;;;;;;;4.72;2.33;;;;;;;;;;5063689;28;20903;-61
2023/10/14 01:50:58;;;;;;;6.70;2.70;;;;;;;;;;5061711;28;20527;-61
2023/10/14 01:53:27;;;;;;;3.20;1.90;;;;;;;;;;5068253;28;20624;-61
2023/10/14 01:55:54;;;;;;;3.00;1.70;;;;;;;;;;5069297;28;20772;-61
2023/10/14 01:58:29;;;;;;;1.90;1.77;;;;;;;;;;5057579;28;20417;-61
2023/10/14 02:01:00;;;;;;;2.80;2.03;;;;;;;;;;5064702;28;20469;-61
2023/10/14 02:03:32;;;;;;;2.83;2.30;;;;;;;;;;5060833;28;20429;-61
2023/10/14 02:05:59;;;;;;;3.50;2.60;;;;;;;;;;5063634;28;20413;-61
2023/10/14 02:08:28;;;;;;;4.05;2.72;;;;;;;;;;5062026;28;20461;-61
2023/10/14 02:10:55;;;;;;;5.80;3.40;;;;;;;;;;5065675;28;20414;-61
2023/10/14 02:13:22;;;;;;;4.55;3.03;;;;;;;;;;5061849;28;20409;-61
2023/10/14 02:15:52;;;;;;;4.95;2.47;;;;;;;;;;5057908;28;20463;-61
2023/10/14 02:18:21;;;;;;;4.70;2.50;;;;;;;;;;5059994;28;20411;-63
2023/10/14 02:20:57;;;;;;;4.07;2.15;;;;;;;;;;5063550;28;20403;-63
2023/10/14 02:23:30;;;;;;;4.18;2.10;;;;;;;;;;5065128;28;20507;-63
2023/10/14 02:25:57;;;;;;;3.57;1.70;;;;;;;;;;5073384;28;20446;-63
2023/10/14 02:28:27;;;;;;;2.03;1.10;;;;;;;;;;5061799;28;20511;-63
2023/10/14 02:30:59;;;;;;;6.30;1.27;;;;;;;;;;5062557;28;20433;-63
2023/10/14 02:33:27;;;;;;;3.15;1.30;;;;;;;;;;5065158;28;20409;-63
2023/10/14 02:35:59;;;;;;;2.30;1.10;;;;;;;;;;5065194;28;20539;-63
2023/10/14 02:38:26;;;;;;;1.88;1.00;;;;;;;;;;5060824;28;20466;-63
2023/10/14 02:40:54;;;;;;;8.03;1.30;;;;;;;;;;5059786;28;20854;-63
2023/10/14 02:43:21;;;;;;;3.22;1.30;;;;;;;;;;5060216;28;20436;-63
2023/10/14 02:45:49;;;;;;;2.88;1.13;;;;;;;;;;5060320;28;20414;-63
2023/10/14 02:48:19;;;;;;;2.53;1.13;;;;;;;;;;5063655;28;20802;-63
2023/10/14 02:50:50;;;;;;;2.80;1.00;;;;;;;;;;5063367;28;20457;-63
2023/10/14 02:53:22;;;;;;;2.88;1.10;;;;;;;;;;5064859;28;20990;-62
2023/10/14 02:55:57;;;;;;;2.83;0.90;;;;;;;;;;5064685;28;20567;-62
2023/10/14 02:58:25;;;;;;;4.28;1.00;;;;;;;;;;5056064;28;20420;-63
2023/10/14 03:00:59;;;;;;;5.45;1.17;;;;;;;;;;5059354;28;20459;-62
2023/10/14 03:03:29;;;;;;;3.25;1.00;;;;;;;;;;5063766;28;20455;-63
2023/10/14 03:06:05;;;;;;;1.92;1.20;;;;;;;;;;5058082;28;20459;-63
2023/10/14 03:08:34;;;;;;;2.20;1.35;;;;;;;;;;5064886;28;20443;-62
2023/10/14 03:11:15;;;;;;;2.80;1.35;;;;;;;;;;5071830;28;20739;-62
2023/10/14 03:13:44;;;;;;;3.30;1.80;;;;;;;;;;5066775;28;20457;-62
2023/10/14 03:16:16;;;;;;;4.20;2.20;;;;;;;;;;5071829;28;20418;-62
2023/10/14 03:18:44;;;;;;;5.05;2.60;;;;;;;;;;5067263;28;20451;-62
2023/10/14 03:21:24;;;;;;;5.20;3.13;;;;;;;;;;5064431;28;20494;-62
2023/10/14 03:23:51;;;;;;;5.05;3.80;;;;;;;;;;5062652;28;20439;-62
2023/10/14 03:26:20;;;;;;;6.22;3.78;;;;;;;;;;5063127;28;20518;-62
2023/10/14 03:28:50;;;;;;;8.77;3.30;;;;;;;;;;5066316;28;20499;-62
2023/10/14 03:31:19;;;;;;;9.77;2.95;;;;;;;;;;5069610;28;20415;-62
2023/10/14 03:33:47;;;;;;;6.65;3.40;;;;;;;;;;5070957;28;20407;-62
2023/10/14 03:36:17;;;;;;;11.20;3.25;;;;;;;;;;5062626;28;20890;-62
2023/10/14 03:38:46;;;;;;;12.50;3.22;;;;;;;;;;5061134;28;20445;-62
2023/10/14 03:41:18;;;;;;;12.20;3.70;;;;;;;;;;5062760;28;20960;-62
2023/10/14 03:43:49;;;;;;;10.35;3.25;;;;;;;;;;5058937;28;20892;-62
2023/10/14 03:46:23;;;;;;;8.97;3.00;;;;;;;;;;5062693;28;20404;-62
2023/10/14 03:48:54;;;;;;;11.65;3.00;;;;;;;;;;5069838;28;20408;-62
2023/10/14 03:51:24;;;;;;;9.40;3.17;;;;;;;;;;5062624;28;20465;-62
2023/10/14 03:53:52;;;;;;;9.20;2.92;;;;;;;;;;5065434;28;20941;-62
2023/10/14 03:56:21;;;;;;;10.70;3.35;;;;;;;;;;5059604;28;20534;-62
2023/10/14 03:58:48;;;;;;;11.83;3.27;;;;;;;;;;5059580;28;20417;-62
2023/10/14 04:01:22;;;;;;;13.13;2.90;;;;;;;;;;5063748;28;20469;-62
2023/10/14 04:03:53;;;;;;;12.63;3.37;;;;;;;;;;5061726;28;20472;-62
2023/10/14 04:06:20;;;;;;;14.27;3.22;;;;;;;;;;5069360;28;20935;-62
2023/10/14 04:08:48;;;;;;;15.15;3.63;;;;;;;;;;5067636;28;20421;-63
2023/10/14 04:11:17;;;;;;;13.23;2.90;;;;;;;;;;5062652;28;20441;-62
2023/10/14 04:13:58;;;;;;;11.15;3.08;;;;;;;;;;5067575;28;20430;-62
2023/10/14 04:16:28;;;;;;;19.52;3.25;;;;;;;;;;5066726;28;20414;-62
2023/10/14 04:19:00;;;;;;;11.05;3.25;;;;;;;;;;5067316;28;20621;-62
2023/10/14 04:21:35;;;;;;;18.20;3.28;;;;;;;;;;5069674;28;20494;-62
2023/10/14 04:24:13;;;;;;;14.95;3.00;;;;;;;;;;5067336;28;20463;-62
2023/10/14 04:26:41;;;;;;;16.65;2.70;;;;;;;;;;5065680;28;20925;-62
2023/10/14 04:29:17;;;;;;;12.40;2.90;;;;;;;;;;5067014;28;20498;-62
2023/10/14 04:31:55;;;;;;;14.23;2.75;;;;;;;;;;5066580;28;20472;-62
2023/10/14 04:34:23;;;;;;;17.30;3.13;;;;;;;;;;5062845;28;20406;-62
2023/10/14 04:36:56;;;;;;;11.82;2.90;;;;;;;;;;5063901;28;20818;-62
2023/10/14 04:39:32;;;;;;;11.70;2.70;;;;;;;;;;5059730;28;20405;-62
2023/10/14 04:42:22;;;;;;;15.13;2.90;;;;;;;;;;5057836;28;20798;-62
2023/10/14 04:44:55;;;;;;;10.02;2.80;;;;;;;;;;5063626;28;20484;-62
2023/10/14 04:47:35;;;;;;;14.30;2.65;;;;;;;;;;5061047;28;20408;-62
2023/10/14 04:50:09;;;;;;;14.85;3.10;;;;;;;;;;5068943;28;20447;-62
2023/10/14 04:52:37;;;;;;;15.00;2.80;;;;;;;;;;5069379;28;20506;-62
2023/10/14 04:55:21;;;;;;;15.43;2.90;;;;;;;;;;5060303;28;20416;-63
2023/10/14 04:58:05;;;;;;;18.08;3.20;;;;;;;;;;5064165;28;20496;-62
2023/10/14 05:00:33;;;;;;;13.05;3.17;;;;;;;;;;5062596;28;20415;-62
2023/10/14 05:03:01;;;;;;;12.60;2.53;;;;;;;;;;5067992;28;20424;-62
2023/10/14 05:05:33;;;;;;;14.30;3.05;;;;;;;;;;5067177;28;20462;-62
2023/10/14 05:08:03;;;;;;;17.23;3.35;;;;;;;;;;5066823;28;20495;-62
2023/10/14 05:10:30;;;;;;;16.52;3.90;;;;;;;;;;5061583;28;20419;-62
2023/10/14 05:12:58;;;;;;;15.13;3.33;;;;;;;;;;5059301;28;20535;-62
2023/10/14 05:15:27;;;;;;;13.48;3.08;;;;;;;;;;5058985;28;20401;-62
2023/10/14 05:18:00;;;;;;;14.05;2.92;;;;;;;;;;5062456;28;20421;-62
2023/10/14 05:20:47;;;;;;;16.85;3.20;;;;;;;;;;5057851;28;20408;-62
2023/10/14 05:23:19;;;;;;;14.48;3.60;;;;;;;;;;5057949;28;20407;-62
2023/10/14 05:25:48;;;;;;;18.35;3.75;;;;;;;;;;5057519;28;20512;-62
2023/10/14 05:28:16;;;;;;;16.08;3.72;;;;;;;;;;5055756;28;20622;-62
2023/10/14 05:30:46;;;;;;;21.65;3.83;;;;;;;;;;5058394;28;20454;-62
2023/10/14 05:33:14;;;;;;;17.67;4.03;;;;;;;;;;5061208;28;20415;-62
2023/10/14 05:35:42;;;;;;;18.48;3.70;;;;;;;;;;5057720;28;20781;-62
2023/10/14 05:38:10;;;;;;;15.88;4.57;;;;;;;;;;5062899;28;20440;-62
2023/10/14 05:40:40;;;;;;;15.10;4.25;;;;;;;;;;5057310;28;20930;-62
2023/10/14 05:43:07;;;;;;;18.48;4.40;;;;;;;;;;5060309;28;20798;-62
2023/10/14 05:45:35;;;;;;;20.13;4.97;;;;;;;;;;5057748;28;20425;-63
2023/10/14 05:48:03;;;;;;;18.17;4.47;;;;;;;;;;5066991;28;20416;-61
2023/10/14 05:50:30;;;;;;;15.00;4.75;;;;;;;;;;5066667;28;20412;-62
2023/10/14 05:52:57;;;;;;;17.60;4.73;;;;;;;;;;5067952;28;20473;-62
2023/10/14 05:55:24;;;;;;;15.63;4.22;;;;;;;;;;5063875;28;20889;-61
2023/10/14 05:57:53;;;;;;;22.15;4.47;;;;;;;;;;5064555;28;20482;-61
2023/10/14 06:00:25;;;;;;;18.58;3.80;;;;;;;;;;5065521;28;20422;-61
2023/10/14 06:02:52;;;;;;;14.35;3.50;;;;;;;;;;5064757;28;20498;-61
2023/10/14 06:05:21;;;;;;;18.25;3.78;;;;;;;;;;5065433;28;20439;-61
2023/10/14 06:07:48;;;;;;;16.38;3.78;;;;;;;;;;5064602;28;20422;-61
2023/10/14 06:10:20;;;;;;;12.93;3.00;;;;;;;;;;5062685;28;20483;-61
2023/10/14 06:12:48;;;;;;;14.88;3.20;;;;;;;;;;5066501;28;20408;-62
2023/10/14 06:15:17;;;;;;;17.88;3.60;;;;;;;;;;5067412;28;20413;-62
2023/10/14 06:17:44;;;;;;;14.32;3.03;;;;;;;;;;5069304;28;20415;-61
2023/10/14 06:20:13;;;;;;;12.48;3.25;;;;;;;;;;5068377;28;20463;-61
2023/10/14 06:22:41;;;;;;;15.23;3.50;;;;;;;;;;5069542;28;20499;-65
2023/10/14 06:25:08;;;;;;;18.77;3.70;;;;;;;;;;5069642;28;20425;-62
2023/10/14 06:27:35;;;;;;;14.32;3.33;;;;;;;;;;5065937;28;20462;-61
2023/10/14 06:30:03;;;;;;;17.52;3.50;;;;;;;;;;5067791;28;20426;-61
2023/10/14 06:32:31;;;;;;;15.15;3.28;;;;;;;;;;5070347;28;20419;-61
2023/10/14 06:34:59;;;;;;;11.88;3.15;;;;;;;;;;5065230;28;20961;-61
2023/10/14 06:37:26;;;;;;;15.80;3.78;;;;;;;;;;5070282;28;20502;-61
2023/10/14 06:39:54;;;;;;;17.80;3.40;;;;;;;;;;5061566;28;20413;-60
2023/10/14 06:42:22;;;;;;;14.13;3.40;;;;;;;;;;5061404;28;20419;-61
2023/10/14 06:44:51;;;;;;;14.23;3.45;;;;;;;;;;5062255;28;20428;-62
2023/10/14 06:47:21;;;;;;;20.60;3.78;;;;;;;;;;5064007;28;20412;-62
2023/10/14 06:49:50;;;;;;;14.68;3.47;;;;;;;;;;5062041;28;20417;-62
2023/10/14 06:52:18;;;;;;;16.17;3.78;;;;;;;;;;5061521;28;20441;-62
2023/10/14 06:54:46;;;;;;;13.48;3.30;;;;;;;;;;5064055;28;20400;-63
2023/10/14 06:57:14;;;;;;;20.15;3.78;;;;;;;;;;5062447;28;20417;-63
2023/10/14 06:59:42;;;;;;;14.30;3.45;;;;;;;;;;5061588;28;20414;-63
2023/10/14 07:02:10;;;;;;;17.15;2.95;;;;;;;;;;5063339;28;20517;-63
2023/10/14 07:04:40;;;;;;;17.40;3.30;;;;;;;;;;5060006;28;20463;-63
2023/10/14 07:07:09;;;;;;;14.65;3.00;;;;;;;;;;5065522;28;20409;-63
2023/10/14 07:09:37;;;;;;;20.07;3.57;;;;;;;;;;5063100;28;20960;-63
2023/10/14 07:12:13;;;;;;;15.33;3.60;;;;;;;;;;5062922;28;20822;-63
2023/10/14 07:14:44;;;;;;;16.38;3.40;;;;;;;;;;5060893;28;20863;-63
2023/10/14 07:17:12;;;;;;;15.32;3.70;;;;;;;;;;5061379;28;20413;-63
2023/10/14 07:19:39;;;;;;;17.45;3.80;;;;;;;;;;5063496;28;20490;-63
2023/10/14 07:22:08;;;;;;;16.08;3.40;;;;;;;;;;5060386;28;20892;-63
2023/10/14 07:24:35;;;;;;;18.80;3.50;;;;;;;;;;5066518;28;20434;-63
2023/10/14 07:27:03;;;;;;;11.65;3.30;;;;;;;;;;5056509;28;20452;-63
2023/10/14 07:29:30;;;;;;;14.75;3.90;;;;;;;;;;5051964;28;20404;-63
2023/10/14 07:31:57;;;;;;;16.95;3.53;;;;;;;;;;5051780;28;20702;-63
2023/10/14 07:34:24;;;;;;;18.73;4.43;;;;;;;;;;5054192;28;20874;-63
2023/10/14 07:36:53;;;;;;;19.55;3.85;;;;;;;;;;5060150;28;20408;-63
2023/10/14 07:39:28;;;;;;;18.13;3.75;;;;;;;;;;5062609;28;20903;-62
2023/10/14 07:41:55;;;;;;;17.52;3.70;;;;;;;;;;5060683;28;20409;-62
2023/10/14 07:44:23;;;;;;;16.00;3.75;;;;;;;;;;5060228;28;20503;-62
2023/10/14 07:46:51;;;;;;;15.02;3.58;;;;;;;;;;5061199;28;21069;-63
2023/10/14 07:49:18;;;;;;;13.87;3.50;;;;;;;;;;5060348;28;20405;-63
2023/10/14 07:51:46;;;;;;;15.82;3.85;;;;;;;;;;5059591;28;20425;-64
2023/10/14 07:54:13;;;;;;;15.25;4.10;;;;;;;;;;5066185;28;20889;-63
2023/10/14 07:56:43;;;;;;;16.15;3.47;;;;;;;;;;5067178;28;20414;-63
2023/10/14 07:59:10;;;;;;;13.13;3.73;;;;;;;;;;5063728;28;20474;-63
2023/10/14 08:01:38;;;;;;;20.17;3.78;;;;;;;;;;5059668;28;20416;-62
2023/10/14 08:04:08;;;;;;;11.75;3.30;;;;;;;;;;5056876;28;20500;-63
2023/10/14 08:06:40;;;;;;;15.82;3.35;;;;;;;;;;5067732;28;20882;-62
2023/10/14 08:09:15;;;;;;;14.80;3.25;;;;;;;;;;5058153;28;20411;-63
2023/10/14 08:11:43;;;;;;;15.65;3.40;;;;;;;;;;5061966;28;20412;-67
2023/10/14 08:14:10;;;;;;;19.25;3.67;;;;;;;;;;5059856;28;20417;-67
2023/10/14 08:16:38;;;;;;;15.82;3.58;;;;;;;;;;5058946;28;20478;-67
2023/10/14 08:19:06;;;;;;;15.20;3.80;;;;;;;;;;5061518;28;20486;-67
2023/10/14 08:21:36;;;;;;;14.45;3.00;;;;;;;;;;5059860;28;20901;-67
2023/10/14 08:24:05;;;;;;;13.05;3.20;;;;;;;;;;5059326;28;20485;-67
2023/10/14 08:26:32;;;;;;;14.57;3.35;;;;;;;;;;5049771;28;20425;-67
2023/10/14 08:29:01;;;;;;;17.92;3.63;;;;;;;;;;5050031;28;20413;-67
2023/10/14 08:31:28;;;;;;;13.75;3.33;;;;;;;;;;5049690;28;20420;-67
2023/10/14 08:33:55;;;;;;;11.70;2.85;;;;;;;;;;5049654;28;20838;-67
2023/10/14 08:36:22;;;;;;;14.82;2.90;;;;;;;;;;5062907;28;20404;-67
2023/10/14 08:38:49;;;;;;;15.25;2.50;;;;;;;;;;5058448;28;20532;-68
2023/10/14 08:41:16;;;;;;;17.52;3.33;;;;;;;;;;5058586;28;20440;-62
2023/10/14 08:43:49;;;;;;;15.25;3.38;;;;;;;;;;5059782;28;20419;-61
2023/10/14 08:46:18;;;;;;;14.48;3.33;;;;;;;;;;5060657;28;20992;-62
2023/10/14 08:48:46;;;;;;;14.70;2.90;;;;;;;;;;5059603;28;20417;-61
2023/10/14 08:51:15;;;;;;;13.27;3.58;;;;;;;;;;5058874;28;20780;-62
2023/10/14 08:53:44;;;;;;;12.85;2.83;;;;;;;;;;5049051;28;21295;-62
2023/10/14 08:56:14;;;;;;;12.57;2.88;;;;;;;;;;5049434;28;20463;-65
2023/10/14 08:58:41;;;;;;;15.52;3.10;;;;;;;;;;5060242;28;20405;-64
2023/10/14 09:01:11;;;;;;;14.60;2.78;;;;;;;;;;5060658;28;20411;-63
2023/10/14 09:03:39;;;;;;;10.80;2.65;;;;;;;;;;5060129;28;20408;-64
2023/10/14 09:06:06;;;;;;;12.73;3.08;;;;;;;;;;5060145;28;20425;-63
2023/10/14 09:08:33;;;;;;;9.93;2.42;;;;;;;;;;5059854;28;20499;-63
2023/10/14 09:11:01;;;;;;;13.20;2.40;;;;;;;;;;5060529;28;20494;-66
2023/10/14 09:13:28;;;;;;;34.00;15.50;;;;;;;;;;5057872;28;20417;-65
2023/10/14 09:15:57;;;;;;;19.17;5.53;;;;;;;;;;5059844;28;20407;-62
2023/10/14 09:18:27;;;;;;;13.73;3.42;;;;;;;;;;5060397;28;20411;-63
2023/10/14 09:20:56;;;;;;;13.00;2.47;;;;;;;;;;5058006;28;20864;-63
2023/10/14 09:23:29;;;;;;;14.45;3.03;;;;;;;;;;5059121;28;20412;-63
2023/10/14 09:25:57;;;;;;;12.60;2.72;;;;;;;;;;5060257;28;20504;-63
2023/10/14 09:28:25;;;;;;;14.07;3.20;;;;;;;;;;5059207;28;20409;-64
2023/10/14 09:30:52;;;;;;;10.30;2.47;;;;;;;;;;5058065;28;20417;-63
2023/10/14 09:33:20;;;;;;;10.77;2.75;;;;;;;;;;5049258;28;21025;-62
2023/10/14 09:35:51;;;;;;;11.77;2.40;;;;;;;;;;5057613;28;20410;-63
2023/10/14 09:38:23;;;;;;;10.73;2.75;;;;;;;;;;5060023;28;20950;-65
2023/10/14 09:40:54;;;;;;;10.52;2.60;;;;;;;;;;5059455;28;20465;-63
2023/10/14 09:43:23;;;;;;;11.13;2.70;;;;;;;;;;5060702;28;20411;-63
2023/10/14 09:45:51;;;;;;;10.68;2.78;;;;;;;;;;5058605;28;20429;-64
2023/10/14 09:48:19;;;;;;;14.70;2.90;;;;;;;;;;5062924;28;21072;-63
2023/10/14 09:50:47;;;;;;;11.75;3.63;;;;;;;;;;5063999;28;20524;-64
2023/10/14 09:53:14;;;;;;;12.70;2.88;;;;;;;;;;5062405;28;20432;-66
2023/10/14 09:55:44;;;;;;;17.27;3.13;;;;;;;;;;5062236;28;20419;-65
2023/10/14 09:58:14;;;;;;;13.30;2.65;;;;;;;;;;5063998;28;20521;-66
2023/10/14 10:00:41;;;;;;;11.30;3.30;;;;;;;;;;5062642;28;20412;-63
2023/10/14 10:03:09;;;;;;;12.07;2.63;;;;;;;;;;5061541;28;20474;-65
2023/10/14 10:05:39;;;;;;;14.60;2.63;;;;;;;;;;5065008;28;20472;-67
2023/10/14 10:08:13;;;;;;;10.95;2.60;;;;;;;;;;5065366;28;20418;-67
2023/10/14 10:10:40;;;;;;;13.15;2.80;;;;;;;;;;5052620;28;20408;-67
2023/10/14 10:13:12;;;;;;;16.77;3.00;;;;;;;;;;5052655;28;20409;-64
2023/10/14 10:15:40;;;;;;;11.52;2.50;;;;;;;;;;5052713;28;20413;-64
2023/10/14 10:18:12;;;;;;;9.98;2.55;;;;;;;;;;5052604;28;20854;-65
2023/10/14 10:20:45;;;;;;;12.27;2.92;;;;;;;;;;5052952;28;20484;-70
2023/10/14 10:23:14;;;;;;;12.50;3.05;;;;;;;;;;5062330;28;20516;-70
2023/10/14 10:25:49;;;;;;;12.52;2.30;;;;;;;;;;5061955;28;20466;-68
2023/10/14 10:28:37;;;;;;;12.48;2.38;;;;;;;;;;5061944;28;20469;-69
2023/10/14 10:31:09;;;;;;;13.82;2.70;;;;;;;;;;5049411;28;20564;-69
2023/10/14 10:34:01;;;;;;;9.73;2.40;;;;;;;;;;5052709;28;20663;-71
2023/10/14 10:36:29;;;;;;;10.90;2.27;;;;;;;;;;5048589;28;20572;-69
2023/10/14 10:38:57;;;;;;;14.27;2.67;;;;;;;;;;5062349;28;20532;-68
2023/10/14 10:41:25;;;;;;;12.70;2.53;;;;;;;;;;5063367;28;20422;-67
2023/10/14 10:43:52;;;;;;;10.57;2.70;;;;;;;;;;5061045;28;20450;-67
2023/10/14 10:46:39;;;;;;;12.88;2.35;;;;;;;;;;5061852;28;20575;-67
2023/10/14 10:49:07;;;;;;;9.00;2.60;;;;;;;;;;5066052;28;20458;-69
2023/10/14 10:51:34;;;;;;;9.52;2.17;;;;;;;;;;5067278;28;20499;-70
2023/10/14 10:54:02;;;;;;;8.37;2.10;;;;;;;;;;5067793;28;20407;-70
2023/10/14 10:56:30;;;;;;;11.38;2.50;;;;;;;;;;5076631;28;20423;-69
2023/10/14 10:58:58;;;;;;;13.75;2.90;;;;;;;;;;5076049;28;20824;-72
2023/10/14 11:01:26;;;;;;;9.15;2.15;;;;;;;;;;5066744;28;20451;-70
2023/10/14 11:03:54;;;;;;;11.60;2.65;;;;;;;;;;5065068;28;20483;-73
2023/10/14 11:06:24;;;;;;;12.10;2.42;;;;;;;;;;5066991;28;20470;-69
2023/10/14 11:08:51;;;;;;;10.32;2.40;;;;;;;;;;5063572;28;20458;-68
2023/10/14 11:11:18;;;;;;;6.95;2.13;;;;;;;;;;5064852;28;20787;-69
2023/10/14 11:13:46;;;;;;;14.68;5.20;;;;;;;;;;5066338;28;20411;-69
2023/10/14 11:16:13;;;;;;;13.18;2.85;;;;;;;;;;5063877;28;20411;-68
2023/10/14 11:18:46;;;;;;;7.97;2.42;;;;;;;;;;5063769;28;20831;-70
2023/10/14 11:21:16;;;;;;;10.55;2.30;;;;;;;;;;5051272;28;20909;-70
2023/10/14 11:23:44;;;;;;;6.75;2.10;;;;;;;;;;5051264;28;20500;-69
2023/10/14 11:26:12;;;;;;;10.10;2.58;;;;;;;;;;5050742;28;20433;-70
2023/10/14 11:28:39;;;;;;;11.73;2.60;;;;;;;;;;5049826;28;20413;-69
2023/10/14 11:31:08;;;;;;;13.63;2.67;;;;;;;;;;5051266;28;20413;-68
2023/10/14 11:33:35;;;;;;;12.20;2.63;;;;;;;;;;5062615;28;20443;-68
2023/10/14 11:36:03;;;;;;;10.77;2.10;;;;;;;;;;5064479;28;20832;-68
2023/10/14 11:38:32;;;;;;;9.13;2.30;;;;;;;;;;5061537;28;20543;-68
2023/10/14 11:41:02;;;;;;;8.03;1.80;;;;;;;;;;5059113;28;20428;-68
2023/10/14 11:43:30;;;;;;;8.87;2.23;;;;;;;;;;5060433;28;20505;-68
2023/10/14 11:45:57;;;;;;;12.82;2.25;;;;;;;;;;5060280;28;20789;-68
2023/10/14 11:48:24;;;;;;;10.20;2.03;;;;;;;;;;5061725;28;20419;-68
2023/10/14 11:50:56;;;;;;;9.25;2.20;;;;;;;;;;5061559;28;20411;-67
2023/10/14 11:53:27;;;;;;;8.30;2.23;;;;;;;;;;5065039;28;20894;-68
2023/10/14 11:55:58;;;;;;;11.02;2.15;;;;;;;;;;5060054;28;20847;-68
2023/10/14 11:58:25;;;;;;;13.10;2.95;;;;;;;;;;5061766;28;20474;-68
2023/10/14 12:00:52;;;;;;;9.35;2.00;;;;;;;;;;5059308;28;20463;-68
2023/10/14 12:03:19;;;;;;;11.43;2.85;;;;;;;;;;5059506;28;20469;-68
2023/10/14 12:05:46;;;;;;;7.63;1.92;;;;;;;;;;5066258;28;20828;-68
2023/10/14 12:08:13;;;;;;;8.80;1.98;;;;;;;;;;5059667;28;20472;-70
2023/10/14 12:10:45;;;;;;;7.40;1.58;;;;;;;;;;5059383;28;20423;-69
2023/10/14 12:13:14;;;;;;;9.90;2.00;;;;;;;;;;5061989;28;20481;-69
2023/10/14 12:15:41;;;;;;;8.50;2.10;;;;;;;;;;5059846;28;20445;-70
2023/10/14 12:18:08;;;;;;;9.82;1.92;;;;;;;;;;5059284;28;20413;-71
2023/10/14 12:20:35;;;;;;;8.43;1.88;;;;;;;;;;5059742;28;20902;-70
2023/10/14 12:23:02;;;;;;;9.23;1.60;;;;;;;;;;5061900;28;20523;-70
2023/10/14 12:25:30;;;;;;;9.85;1.90;;;;;;;;;;5066615;28;20407;-70
2023/10/14 12:27:57;;;;;;;7.13;1.53;;;;;;;;;;5063762;28;20493;-71
2023/10/14 12:30:35;;;;;;;6.43;1.90;;;;;;;;;;5060554;28;20462;-67
2023/10/14 12:33:05;;;;;;;8.27;2.00;;;;;;;;;;5058250;28;20500;-67
2023/10/14 12:35:33;;;;;;;8.10;1.73;;;;;;;;;;5063269;28;20450;-69
2023/10/14 12:38:00;;;;;;;8.55;2.00;;;;;;;;;;5059176;28;20437;-70
2023/10/14 12:40:30;;;;;;;8.18;1.83;;;;;;;;;;5058708;28;20420;-69
2023/10/14 12:43:00;;;;;;;6.65;1.65;;;;;;;;;;5060110;28;20439;-71
2023/10/14 12:45:39;;;;;;;9.55;1.70;;;;;;;;;;5060398;28;20453;-72
2023/10/14 12:48:10;;;;;;;7.05;3.33;;;;;;;;;;5060505;28;20939;-72
2023/10/14 12:50:40;;;;;;;9.37;2.90;;;;;;;;;;5049909;28;20446;-72
2023/10/14 12:53:08;;;;;;;6.30;1.73;;;;;;;;;;5049651;28;20544;-70
2023/10/14 12:55:35;;;;;;;6.90;1.60;;;;;;;;;;5049716;28;20504;-72
2023/10/14 12:58:03;;;;;;;7.05;1.52;;;;;;;;;;5049792;28;20905;-71
2023/10/14 13:00:32;;;;;;;7.45;1.73;;;;;;;;;;5049673;28;20470;-71
2023/10/14 13:02:59;;;;;;;4.70;1.40;;;;;;;;;;5057553;28;21127;-71
2023/10/14 13:05:29;;;;;;;8.05;1.50;;;;;;;;;;5061819;28;20497;-71
2023/10/14 13:07:57;;;;;;;4.35;1.27;;;;;;;;;;5057855;28;20945;-70
2023/10/14 13:10:24;;;;;;;6.18;1.60;;;;;;;;;;5060871;28;20414;-68
2023/10/14 13:12:53;;;;;;;8.65;2.17;;;;;;;;;;5059172;28;20409;-68
2023/10/14 13:15:26;;;;;;;5.80;1.50;;;;;;;;;;5058412;28;20818;-69
2023/10/14 13:17:57;;;;;;;8.18;1.70;;;;;;;;;;5058617;28;20440;-68
2023/10/14 13:20:27;;;;;;;6.95;1.65;;;;;;;;;;5058069;28;20466;-68
2023/10/14 13:22:54;;;;;;;8.10;1.83;;;;;;;;;;5052733;28;20562;-69
2023/10/14 13:25:22;;;;;;;9.02;2.13;;;;;;;;;;5053360;28;20455;-68
2023/10/14 13:27:51;;;;;;;5.75;1.40;;;;;;;;;;5053347;28;20437;-71
2023/10/14 13:30:22;;;;;;;6.97;2.00;;;;;;;;;;5053479;28;20475;-69
2023/10/14 13:32:52;;;;;;;6.88;1.75;;;;;;;;;;5053559;28;20773;-70
2023/10/14 13:35:20;;;;;;;7.88;1.45;;;;;;;;;;5060533;28;20450;-70
2023/10/14 13:37:47;;;;;;;9.60;1.90;;;;;;;;;;5066677;28;20423;-70
2023/10/14 13:40:20;;;;;;;8.10;2.00;;;;;;;;;;5067480;28;20420;-68
2023/10/14 13:42:47;;;;;;;6.55;1.50;;;;;;;;;;5062468;28;20757;-69
2023/10/14 13:45:16;;;;;;;6.25;1.88;;;;;;;;;;5059819;28;20409;-68
2023/10/14 13:47:43;;;;;;;5.72;1.90;;;;;;;;;;5064534;28;20515;-68
2023/10/14 13:50:11;;;;;;;8.15;2.05;;;;;;;;;;5066896;28;20413;-68
2023/10/14 13:52:40;;;;;;;5.65;1.73;;;;;;;;;;5066930;28;21018;-68
2023/10/14 13:55:07;;;;;;;6.28;1.73;;;;;;;;;;5064179;28;20476;-68
2023/10/14 13:57:34;;;;;;;7.13;1.60;;;;;;;;;;5065565;28;20423;-71
2023/10/14 14:00:07;;;;;;;8.45;3.75;;;;;;;;;;5069674;28;20422;-70
2023/10/14 14:02:34;;;;;;;8.40;1.83;;;;;;;;;;5069531;28;20456;-68
2023/10/14 14:05:04;;;;;;;8.27;2.08;;;;;;;;;;5064666;28;20461;-69
2023/10/14 14:07:36;;;;;;;6.30;1.90;;;;;;;;;;5068677;28;20465;-61
2023/10/14 14:10:08;;;;;;;6.70;1.92;;;;;;;;;;5063314;28;20479;-63
2023/10/14 14:12:35;;;;;;;8.90;1.50;;;;;;;;;;5065409;28;20414;-61
2023/10/14 14:15:06;;;;;;;6.45;1.95;;;;;;;;;;5072806;28;20415;-60
2023/10/14 14:17:33;;;;;;;6.05;1.88;;;;;;;;;;5067055;28;20786;-61
2023/10/14 14:20:00;;;;;;;10.10;1.70;;;;;;;;;;5069842;28;20465;-68
2023/10/14 14:22:27;;;;;;;9.27;1.77;;;;;;;;;;5067404;28;20420;-66
2023/10/14 14:24:55;;;;;;;8.80;1.60;;;;;;;;;;5070108;28;20423;-63
2023/10/14 14:27:24;;;;;;;6.03;1.58;;;;;;;;;;5070916;28;21072;-64
2023/10/14 14:29:55;;;;;;;8.20;1.90;;;;;;;;;;5068491;28;20411;-63
2023/10/14 14:32:22;;;;;;;8.60;1.75;;;;;;;;;;5064383;28;20441;-65
2023/10/14 14:34:49;;;;;;;6.30;1.63;;;;;;;;;;5068173;28;20426;-65
2023/10/14 14:37:16;;;;;;;10.43;1.75;;;;;;;;;;5065877;28;20411;-63
2023/10/14 14:39:43;;;;;;;6.25;1.58;;;;;;;;;;5063653;28;20407;-66
2023/10/14 14:42:13;;;;;;;7.43;1.80;;;;;;;;;;5061457;28;20412;-66
2023/10/14 14:44:41;;;;;;;5.67;1.40;;;;;;;;;;5061785;28;21218;-66
2023/10/14 14:47:09;;;;;;;6.55;1.88;;;;;;;;;;5063037;28;20909;-67